Terminal Aerodrome Forecast
Issued by NWS

Current Version | Previous Version | Text Only | Print | Product List | Glossary Off
Versions: 1 2 3 4 5 6 7 8 9 10 11 12 13 14 15 16 17 18 19 20 21 22 23 24 25 26 27

000
FTUS41 KRLX 252300
TAFCKB
TAF
KCKB 252320Z 2600/2624 24008KT P6SM SCT250
     FM260300 VRB03KT P6SM SCT070
     FM261600 21007KT P6SM BKN200
     FM261800 24009KT P6SM VCTS BKN045CB
     FM261900 26010G20KT P6SM SHRA VCTS BKN035CB
     FM262000 31011G22KT 5SM SHRA BR OVC025
     FM262200 33011G21KT 3SM SHRA BR OVC015=

USA.gov is the U.S. government's official web portal to all federal, state and local government web resources and services.